sensor_id;sensor_type;location;lat;lon;timestamp;temperature;humidity
12771;DHT22;6449;47.666;9.160;2023-03-01T00:00:48;0.70;99.90
12771;DHT22;6449;47.666;9.160;2023-03-01T00:05:44;0.70;99.90
12771;DHT22;6449;47.666;9.160;2023-03-01T00:10:38;0.80;99.90
12771;DHT22;6449;47.666;9.160;2023-03-01T00:15:32;0.90;99.90
12771;DHT22;6449;47.666;9.160;2023-03-01T00:20:27;0.90;99.90
12771;DHT22;6449;47.666;9.160;2023-03-01T00:25:20;0.80;99.90
12771;DHT22;6449;47.666;9.160;2023-03-01T00:30:14;0.90;99.90
12771;DHT22;6449;47.666;9.160;2023-03-01T00:35:09;1.00;99.90
12771;DHT22;6449;47.666;9.160;2023-03-01T00:40:03;1.00;99.90
12771;DHT22;6449;47.666;9.160;2023-03-01T00:44:57;1.00;99.90
12771;DHT22;6449;47.666;9.160;2023-03-01T00:49:51;1.00;99.90
12771;DHT22;6449;47.666;9.160;2023-03-01T00:54:45;1.00;99.90
12771;DHT22;6449;47.666;9.160;2023-03-01T00:59:39;1.00;99.90
12771;DHT22;6449;47.666;9.160;2023-03-01T01:04:32;1.00;99.90
12771;DHT22;6449;47.666;9.160;2023-03-01T01:09:26;1.00;99.90
12771;DHT22;6449;47.666;9.160;2023-03-01T01:14:20;1.00;99.90
12771;DHT22;6449;47.666;9.160;2023-03-01T01:19:14;1.00;99.90
12771;DHT22;6449;47.666;9.160;2023-03-01T01:24:08;1.00;99.90
12771;DHT22;6449;47.666;9.160;2023-03-01T01:29:03;1.00;99.90
12771;DHT22;6449;47.666;9.160;2023-03-01T01:33:59;1.00;99.90
12771;DHT22;6449;47.666;9.160;2023-03-01T01:38:54;1.00;99.90
12771;DHT22;6449;47.666;9.160;2023-03-01T01:43:49;1.10;99.90
12771;DHT22;6449;47.666;9.160;2023-03-01T01:49:05;1.10;99.90
12771;DHT22;6449;47.666;9.160;2023-03-01T01:54:09;1.10;99.90
12771;DHT22;6449;47.666;9.160;2023-03-01T01:59:07;1.10;99.90
12771;DHT22;6449;47.666;9.160;2023-03-01T02:04:00;1.10;99.90
12771;DHT22;6449;47.666;9.160;2023-03-01T02:08:57;1.10;99.90
12771;DHT22;6449;47.666;9.160;2023-03-01T02:13:54;1.10;99.90
12771;DHT22;6449;47.666;9.160;2023-03-01T02:18:48;1.10;99.90
12771;DHT22;6449;47.666;9.160;2023-03-01T02:23:43;1.10;99.90
12771;DHT22;6449;47.666;9.160;2023-03-01T02:28:39;1.10;99.90
12771;DHT22;6449;47.666;9.160;2023-03-01T02:33:36;1.00;99.90
12771;DHT22;6449;47.666;9.160;2023-03-01T02:38:32;1.10;99.90
12771;DHT22;6449;47.666;9.160;2023-03-01T02:43:29;1.10;99.90
12771;DHT22;6449;47.666;9.160;2023-03-01T02:48:25;1.10;99.90
12771;DHT22;6449;47.666;9.160;2023-03-01T02:53:21;1.10;99.90
12771;DHT22;6449;47.666;9.160;2023-03-01T02:58:23;1.10;99.90
12771;DHT22;6449;47.666;9.160;2023-03-01T03:03:17;1.10;99.90
12771;DHT22;6449;47.666;9.160;2023-03-01T03:08:15;1.10;99.90
12771;DHT22;6449;47.666;9.160;2023-03-01T03:13:16;1.10;99.90
12771;DHT22;6449;47.666;9.160;2023-03-01T03:18:14;1.10;99.90
12771;DHT22;6449;47.666;9.160;2023-03-01T03:23:11;1.10;99.90
12771;DHT22;6449;47.666;9.160;2023-03-01T03:28:07;1.10;99.90
12771;DHT22;6449;47.666;9.160;2023-03-01T03:33:02;1.10;99.90
12771;DHT22;6449;47.666;9.160;2023-03-01T03:37:56;1.20;99.90
12771;DHT22;6449;47.666;9.160;2023-03-01T03:42:57;1.20;99.90
12771;DHT22;6449;47.666;9.160;2023-03-01T03:47:52;1.10;99.90
12771;DHT22;6449;47.666;9.160;2023-03-01T03:52:45;1.10;99.90
12771;DHT22;6449;47.666;9.160;2023-03-01T03:57:40;1.10;99.90
12771;DHT22;6449;47.666;9.160;2023-03-01T04:02:34;1.10;99.90
12771;DHT22;6449;47.666;9.160;2023-03-01T04:07:28;1.10;99.90
12771;DHT22;6449;47.666;9.160;2023-03-01T04:12:23;1.10;99.90
12771;DHT22;6449;47.666;9.160;2023-03-01T04:17:19;1.10;99.90
12771;DHT22;6449;47.666;9.160;2023-03-01T04:22:13;1.10;99.90
12771;DHT22;6449;47.666;9.160;2023-03-01T04:27:10;1.10;99.90
12771;DHT22;6449;47.666;9.160;2023-03-01T04:32:04;1.00;99.90
12771;DHT22;6449;47.666;9.160;2023-03-01T04:36:58;1.00;99.90
12771;DHT22;6449;47.666;9.160;2023-03-01T04:41:51;0.90;99.90
12771;DHT22;6449;47.666;9.160;2023-03-01T04:46:48;1.00;99.90
12771;DHT22;6449;47.666;9.160;2023-03-01T04:51:43;1.00;99.90
12771;DHT22;6449;47.666;9.160;2023-03-01T04:56:36;1.10;99.90
12771;DHT22;6449;47.666;9.160;2023-03-01T05:01:29;1.00;99.90
12771;DHT22;6449;47.666;9.160;2023-03-01T05:06:24;1.10;99.90
12771;DHT22;6449;47.666;9.160;2023-03-01T05:11:18;1.00;99.90
12771;DHT22;6449;47.666;9.160;2023-03-01T05:16:11;1.00;99.90
12771;DHT22;6449;47.666;9.160;2023-03-01T05:21:06;1.00;99.90
12771;DHT22;6449;47.666;9.160;2023-03-01T05:26:03;1.00;99.90
12771;DHT22;6449;47.666;9.160;2023-03-01T05:31:02;1.00;99.90
12771;DHT22;6449;47.666;9.160;2023-03-01T05:36:01;1.10;99.90
12771;DHT22;6449;47.666;9.160;2023-03-01T05:40:55;1.10;99.90
12771;DHT22;6449;47.666;9.160;2023-03-01T05:45:50;1.10;99.90
12771;DHT22;6449;47.666;9.160;2023-03-01T05:50:44;1.00;99.90
12771;DHT22;6449;47.666;9.160;2023-03-01T05:55:39;1.00;99.90
12771;DHT22;6449;47.666;9.160;2023-03-01T06:00:34;1.00;99.90
12771;DHT22;6449;47.666;9.160;2023-03-01T06:05:29;1.00;99.90
12771;DHT22;6449;47.666;9.160;2023-03-01T06:10:23;1.10;99.90
12771;DHT22;6449;47.666;9.160;2023-03-01T06:15:17;1.10;99.90
12771;DHT22;6449;47.666;9.160;2023-03-01T06:20:12;1.10;99.90
12771;DHT22;6449;47.666;9.160;2023-03-01T06:25:10;1.00;99.90
12771;DHT22;6449;47.666;9.160;2023-03-01T06:30:06;1.00;99.90
12771;DHT22;6449;47.666;9.160;2023-03-01T06:35:01;1.00;99.90
12771;DHT22;6449;47.666;9.160;2023-03-01T06:39:55;0.90;99.90
12771;DHT22;6449;47.666;9.160;2023-03-01T06:45:00;1.00;99.90
12771;DHT22;6449;47.666;9.160;2023-03-01T06:49:53;1.10;99.90
12771;DHT22;6449;47.666;9.160;2023-03-01T06:54:47;1.00;99.90
12771;DHT22;6449;47.666;9.160;2023-03-01T06:59:40;1.10;99.90
12771;DHT22;6449;47.666;9.160;2023-03-01T07:04:35;1.10;99.90
12771;DHT22;6449;47.666;9.160;2023-03-01T07:09:28;1.10;99.90
12771;DHT22;6449;47.666;9.160;2023-03-01T07:14:22;1.10;99.90
12771;DHT22;6449;47.666;9.160;2023-03-01T07:19:17;1.10;99.90
12771;DHT22;6449;47.666;9.160;2023-03-01T07:24:14;1.00;99.90
12771;DHT22;6449;47.666;9.160;2023-03-01T07:29:09;1.10;99.90
12771;DHT22;6449;47.666;9.160;2023-03-01T07:34:03;1.10;99.90
12771;DHT22;6449;47.666;9.160;2023-03-01T07:38:58;1.10;99.90
12771;DHT22;6449;47.666;9.160;2023-03-01T07:43:55;1.10;99.90
12771;DHT22;6449;47.666;9.160;2023-03-01T07:48:48;1.10;99.90
12771;DHT22;6449;47.666;9.160;2023-03-01T07:53:42;1.20;99.90
12771;DHT22;6449;47.666;9.160;2023-03-01T07:58:39;1.10;99.90
12771;DHT22;6449;47.666;9.160;2023-03-01T08:03:36;1.10;99.90
12771;DHT22;6449;47.666;9.160;2023-03-01T08:08:31;1.10;99.90
12771;DHT22;6449;47.666;9.160;2023-03-01T08:13:25;1.20;99.90
12771;DHT22;6449;47.666;9.160;2023-03-01T08:18:20;1.20;99.90
12771;DHT22;6449;47.666;9.160;2023-03-01T08:23:15;1.10;99.90
12771;DHT22;6449;47.666;9.160;2023-03-01T08:28:09;1.20;99.90
12771;DHT22;6449;47.666;9.160;2023-03-01T08:33:05;1.20;99.90
12771;DHT22;6449;47.666;9.160;2023-03-01T08:37:58;1.30;99.90
12771;DHT22;6449;47.666;9.160;2023-03-01T08:42:54;1.20;99.90
12771;DHT22;6449;47.666;9.160;2023-03-01T08:47:50;1.30;99.90
12771;DHT22;6449;47.666;9.160;2023-03-01T08:52:45;1.30;99.90
12771;DHT22;6449;47.666;9.160;2023-03-01T08:57:38;1.40;99.90
12771;DHT22;6449;47.666;9.160;2023-03-01T09:02:33;1.40;99.90
12771;DHT22;6449;47.666;9.160;2023-03-01T09:07:27;1.40;99.90
12771;DHT22;6449;47.666;9.160;2023-03-01T09:12:21;1.40;99.90
12771;DHT22;6449;47.666;9.160;2023-03-01T09:17:16;1.40;99.90
12771;DHT22;6449;47.666;9.160;2023-03-01T09:22:11;1.40;99.90
12771;DHT22;6449;47.666;9.160;2023-03-01T09:27:04;1.40;99.90
12771;DHT22;6449;47.666;9.160;2023-03-01T09:32:00;1.40;99.90
12771;DHT22;6449;47.666;9.160;2023-03-01T09:36:53;1.40;99.90
12771;DHT22;6449;47.666;9.160;2023-03-01T09:41:52;1.40;99.90
12771;DHT22;6449;47.666;9.160;2023-03-01T09:46:54;1.40;99.90
12771;DHT22;6449;47.666;9.160;2023-03-01T09:51:57;1.50;99.90
12771;DHT22;6449;47.666;9.160;2023-03-01T09:57:03;1.50;99.90
12771;DHT22;6449;47.666;9.160;2023-03-01T10:02:21;1.50;99.90
12771;DHT22;6449;47.666;9.160;2023-03-01T10:07:27;1.50;99.90
12771;DHT22;6449;47.666;9.160;2023-03-01T10:12:33;1.50;99.90
12771;DHT22;6449;47.666;9.160;2023-03-01T10:17:33;1.50;99.90
12771;DHT22;6449;47.666;9.160;2023-03-01T10:22:30;1.50;99.90
12771;DHT22;6449;47.666;9.160;2023-03-01T10:27:29;1.60;99.90
12771;DHT22;6449;47.666;9.160;2023-03-01T10:32:31;1.70;99.90
12771;DHT22;6449;47.666;9.160;2023-03-01T10:37:25;1.70;99.90
12771;DHT22;6449;47.666;9.160;2023-03-01T10:42:25;1.60;99.90
12771;DHT22;6449;47.666;9.160;2023-03-01T10:47:24;1.60;99.90
12771;DHT22;6449;47.666;9.160;2023-03-01T10:52:22;1.60;99.90
12771;DHT22;6449;47.666;9.160;2023-03-01T10:57:30;1.70;99.90
12771;DHT22;6449;47.666;9.160;2023-03-01T11:02:30;1.50;99.90
12771;DHT22;6449;47.666;9.160;2023-03-01T11:07:26;1.60;99.90
12771;DHT22;6449;47.666;9.160;2023-03-01T11:12:20;1.70;99.90
12771;DHT22;6449;47.666;9.160;2023-03-01T11:17:20;1.80;99.90
12771;DHT22;6449;47.666;9.160;2023-03-01T11:22:19;1.80;99.90
12771;DHT22;6449;47.666;9.160;2023-03-01T11:27:18;1.70;99.90
12771;DHT22;6449;47.666;9.160;2023-03-01T11:32:16;1.70;99.90
12771;DHT22;6449;47.666;9.160;2023-03-01T11:37:20;1.70;99.90
12771;DHT22;6449;47.666;9.160;2023-03-01T11:42:29;1.70;99.90
12771;DHT22;6449;47.666;9.160;2023-03-01T11:47:47;1.70;99.90
12771;DHT22;6449;47.666;9.160;2023-03-01T11:53:12;1.80;99.90
12771;DHT22;6449;47.666;9.160;2023-03-01T11:58:32;1.80;99.90
12771;DHT22;6449;47.666;9.160;2023-03-01T12:04:01;1.70;99.90
12771;DHT22;6449;47.666;9.160;2023-03-01T12:09:34;1.80;99.90
12771;DHT22;6449;47.666;9.160;2023-03-01T12:14:52;1.80;99.90
12771;DHT22;6449;47.666;9.160;2023-03-01T12:20:21;1.90;99.90
12771;DHT22;6449;47.666;9.160;2023-03-01T12:25:28;1.90;99.90
12771;DHT22;6449;47.666;9.160;2023-03-01T12:30:35;2.00;99.90
12771;DHT22;6449;47.666;9.160;2023-03-01T12:35:55;1.90;99.90
12771;DHT22;6449;47.666;9.160;2023-03-01T12:41:20;1.90;99.90
12771;DHT22;6449;47.666;9.160;2023-03-01T12:46:42;1.80;99.90
12771;DHT22;6449;47.666;9.160;2023-03-01T12:51:51;1.70;99.90
12771;DHT22;6449;47.666;9.160;2023-03-01T12:56:49;1.90;99.90
12771;DHT22;6449;47.666;9.160;2023-03-01T13:01:49;1.90;99.90
12771;DHT22;6449;47.666;9.160;2023-03-01T13:06:58;1.90;99.90
12771;DHT22;6449;47.666;9.160;2023-03-01T13:12:02;1.90;99.90
12771;DHT22;6449;47.666;9.160;2023-03-01T13:17:30;1.90;99.90
12771;DHT22;6449;47.666;9.160;2023-03-01T13:22:29;1.90;99.90
12771;DHT22;6449;47.666;9.160;2023-03-01T13:27:35;1.90;99.90
12771;DHT22;6449;47.666;9.160;2023-03-01T13:32:29;2.00;99.90
12771;DHT22;6449;47.666;9.160;2023-03-01T13:37:41;2.00;99.90
12771;DHT22;6449;47.666;9.160;2023-03-01T13:42:42;2.00;99.90
12771;DHT22;6449;47.666;9.160;2023-03-01T13:47:54;2.10;99.90
12771;DHT22;6449;47.666;9.160;2023-03-01T13:52:56;2.10;99.90
12771;DHT22;6449;47.666;9.160;2023-03-01T13:57:56;2.10;99.90
12771;DHT22;6449;47.666;9.160;2023-03-01T14:03:08;2.00;99.90
12771;DHT22;6449;47.666;9.160;2023-03-01T14:08:19;2.10;99.90
12771;DHT22;6449;47.666;9.160;2023-03-01T14:13:26;2.10;99.90
12771;DHT22;6449;47.666;9.160;2023-03-01T14:18:32;2.10;99.90
12771;DHT22;6449;47.666;9.160;2023-03-01T14:23:34;2.10;99.90
12771;DHT22;6449;47.666;9.160;2023-03-01T14:28:29;2.10;99.90
12771;DHT22;6449;47.666;9.160;2023-03-01T14:33:27;2.10;99.90
12771;DHT22;6449;47.666;9.160;2023-03-01T14:38:27;2.10;99.90
12771;DHT22;6449;47.666;9.160;2023-03-01T14:43:24;2.20;99.90
12771;DHT22;6449;47.666;9.160;2023-03-01T14:48:19;2.10;99.90
12771;DHT22;6449;47.666;9.160;2023-03-01T14:53:17;2.10;99.90
12771;DHT22;6449;47.666;9.160;2023-03-01T14:58:15;2.20;99.90
12771;DHT22;6449;47.666;9.160;2023-03-01T15:03:18;2.20;99.90
12771;DHT22;6449;47.666;9.160;2023-03-01T15:08:21;2.20;99.90
12771;DHT22;6449;47.666;9.160;2023-03-01T15:13:22;2.30;99.90
12771;DHT22;6449;47.666;9.160;2023-03-01T15:18:20;2.20;99.90
12771;DHT22;6449;47.666;9.160;2023-03-01T15:23:23;2.30;99.90
12771;DHT22;6449;47.666;9.160;2023-03-01T15:28:25;2.20;99.90
12771;DHT22;6449;47.666;9.160;2023-03-01T15:33:30;2.20;99.90
12771;DHT22;6449;47.666;9.160;2023-03-01T15:38:34;2.20;99.90
12771;DHT22;6449;47.666;9.160;2023-03-01T15:43:41;2.30;99.90
12771;DHT22;6449;47.666;9.160;2023-03-01T15:48:38;2.30;99.90
12771;DHT22;6449;47.666;9.160;2023-03-01T15:53:31;2.30;99.90
12771;DHT22;6449;47.666;9.160;2023-03-01T15:58:30;2.30;99.90
12771;DHT22;6449;47.666;9.160;2023-03-01T16:03:23;2.40;99.90
12771;DHT22;6449;47.666;9.160;2023-03-01T16:08:18;2.40;99.90
12771;DHT22;6449;47.666;9.160;2023-03-01T16:13:12;2.20;99.90
12771;DHT22;6449;47.666;9.160;2023-03-01T16:18:06;2.20;99.90
12771;DHT22;6449;47.666;9.160;2023-03-01T16:23:04;2.20;99.90
12771;DHT22;6449;47.666;9.160;2023-03-01T16:28:01;2.10;99.90
12771;DHT22;6449;47.666;9.160;2023-03-01T16:33:00;2.00;99.90
12771;DHT22;6449;47.666;9.160;2023-03-01T16:38:15;2.00;99.90
12771;DHT22;6449;47.666;9.160;2023-03-01T16:43:11;2.00;99.90
12771;DHT22;6449;47.666;9.160;2023-03-01T16:48:05;2.00;99.90
12771;DHT22;6449;47.666;9.160;2023-03-01T16:52:58;2.00;99.90
12771;DHT22;6449;47.666;9.160;2023-03-01T16:57:52;2.00;99.90
12771;DHT22;6449;47.666;9.160;2023-03-01T17:02:46;2.00;99.90
12771;DHT22;6449;47.666;9.160;2023-03-01T17:07:40;1.90;99.90
12771;DHT22;6449;47.666;9.160;2023-03-01T17:12:34;1.90;99.90
12771;DHT22;6449;47.666;9.160;2023-03-01T17:17:28;2.00;99.90
12771;DHT22;6449;47.666;9.160;2023-03-01T17:22:22;2.00;99.90
12771;DHT22;6449;47.666;9.160;2023-03-01T17:27:16;2.00;99.90
12771;DHT22;6449;47.666;9.160;2023-03-01T17:32:10;2.10;99.90
12771;DHT22;6449;47.666;9.160;2023-03-01T17:37:03;2.10;99.90
12771;DHT22;6449;47.666;9.160;2023-03-01T17:41:58;2.10;99.90
12771;DHT22;6449;47.666;9.160;2023-03-01T17:46:52;2.10;99.90
12771;DHT22;6449;47.666;9.160;2023-03-01T17:51:45;2.10;99.90
12771;DHT22;6449;47.666;9.160;2023-03-01T17:56:54;2.10;99.90
12771;DHT22;6449;47.666;9.160;2023-03-01T18:02:26;2.10;99.90
12771;DHT22;6449;47.666;9.160;2023-03-01T18:07:41;2.10;99.90
12771;DHT22;6449;47.666;9.160;2023-03-01T18:19:12;2.10;99.90
12771;DHT22;6449;47.666;9.160;2023-03-01T18:24:06;2.20;99.90
12771;DHT22;6449;47.666;9.160;2023-03-01T18:35:35;2.20;99.90
12771;DHT22;6449;47.666;9.160;2023-03-01T18:40:30;2.20;99.90
12771;DHT22;6449;47.666;9.160;2023-03-01T18:45:30;2.10;99.90
12771;DHT22;6449;47.666;9.160;2023-03-01T18:50:29;2.20;99.90
12771;DHT22;6449;47.666;9.160;2023-03-01T18:55:29;2.20;99.90
12771;DHT22;6449;47.666;9.160;2023-03-01T19:00:26;2.10;99.90
12771;DHT22;6449;47.666;9.160;2023-03-01T19:05:25;2.10;99.90
12771;DHT22;6449;47.666;9.160;2023-03-01T19:10:30;2.20;99.90
12771;DHT22;6449;47.666;9.160;2023-03-01T19:15:25;2.20;99.90
12771;DHT22;6449;47.666;9.160;2023-03-01T19:20:20;2.20;99.90
12771;DHT22;6449;47.666;9.160;2023-03-01T19:25:15;2.20;99.90
12771;DHT22;6449;47.666;9.160;2023-03-01T19:30:12;2.10;99.90
12771;DHT22;6449;47.666;9.160;2023-03-01T19:35:06;2.10;99.90
12771;DHT22;6449;47.666;9.160;2023-03-01T19:40:24;2.10;99.90
12771;DHT22;6449;47.666;9.160;2023-03-01T19:45:22;2.10;99.90
12771;DHT22;6449;47.666;9.160;2023-03-01T19:50:24;2.20;99.90
12771;DHT22;6449;47.666;9.160;2023-03-01T19:55:17;2.20;99.90
12771;DHT22;6449;47.666;9.160;2023-03-01T20:00:12;2.10;99.90
12771;DHT22;6449;47.666;9.160;2023-03-01T20:05:08;2.20;99.90
12771;DHT22;6449;47.666;9.160;2023-03-01T20:10:03;2.20;99.90
12771;DHT22;6449;47.666;9.160;2023-03-01T20:14:57;2.20;99.90
12771;DHT22;6449;47.666;9.160;2023-03-01T20:19:50;2.10;99.90
12771;DHT22;6449;47.666;9.160;2023-03-01T20:24:45;2.10;99.90
12771;DHT22;6449;47.666;9.160;2023-03-01T20:29:38;2.10;99.90
12771;DHT22;6449;47.666;9.160;2023-03-01T20:34:32;2.10;99.90
12771;DHT22;6449;47.666;9.160;2023-03-01T20:39:25;2.10;99.90
12771;DHT22;6449;47.666;9.160;2023-03-01T20:44:21;2.10;99.90
12771;DHT22;6449;47.666;9.160;2023-03-01T20:49:14;2.00;99.90
12771;DHT22;6449;47.666;9.160;2023-03-01T20:54:08;2.00;99.90
12771;DHT22;6449;47.666;9.160;2023-03-01T20:59:02;1.90;99.90
12771;DHT22;6449;47.666;9.160;2023-03-01T21:03:57;1.90;99.90
12771;DHT22;6449;47.666;9.160;2023-03-01T21:08:51;1.90;99.90
12771;DHT22;6449;47.666;9.160;2023-03-01T21:13:46;1.80;99.90
12771;DHT22;6449;47.666;9.160;2023-03-01T21:18:39;1.80;99.90
12771;DHT22;6449;47.666;9.160;2023-03-01T21:23:36;1.90;99.90
12771;DHT22;6449;47.666;9.160;2023-03-01T21:28:31;1.90;99.90
12771;DHT22;6449;47.666;9.160;2023-03-01T21:33:25;1.90;99.90
12771;DHT22;6449;47.666;9.160;2023-03-01T21:38:18;1.90;99.90
12771;DHT22;6449;47.666;9.160;2023-03-01T21:43:13;2.00;99.90
12771;DHT22;6449;47.666;9.160;2023-03-01T21:48:06;1.80;99.90
12771;DHT22;6449;47.666;9.160;2023-03-01T21:53:00;1.70;99.90
12771;DHT22;6449;47.666;9.160;2023-03-01T21:57:56;1.70;99.90
12771;DHT22;6449;47.666;9.160;2023-03-01T22:02:50;1.80;99.90
12771;DHT22;6449;47.666;9.160;2023-03-01T22:07:48;1.70;99.90
12771;DHT22;6449;47.666;9.160;2023-03-01T22:12:42;1.60;99.90
12771;DHT22;6449;47.666;9.160;2023-03-01T22:17:35;1.70;99.90
12771;DHT22;6449;47.666;9.160;2023-03-01T22:22:30;1.70;99.90
12771;DHT22;6449;47.666;9.160;2023-03-01T22:27:24;1.80;99.90
12771;DHT22;6449;47.666;9.160;2023-03-01T22:32:17;1.80;99.90
12771;DHT22;6449;47.666;9.160;2023-03-01T22:37:11;1.90;99.90
12771;DHT22;6449;47.666;9.160;2023-03-01T22:42:05;1.90;99.90
12771;DHT22;6449;47.666;9.160;2023-03-01T22:47:00;1.80;99.90
12771;DHT22;6449;47.666;9.160;2023-03-01T22:51:53;1.90;99.90
12771;DHT22;6449;47.666;9.160;2023-03-01T22:56:50;1.90;99.90
12771;DHT22;6449;47.666;9.160;2023-03-01T23:01:45;1.90;99.90
12771;DHT22;6449;47.666;9.160;2023-03-01T23:06:39;1.80;99.90
12771;DHT22;6449;47.666;9.160;2023-03-01T23:11:41;1.80;99.90
12771;DHT22;6449;47.666;9.160;2023-03-01T23:16:35;1.90;99.90
12771;DHT22;6449;47.666;9.160;2023-03-01T23:21:31;1.90;99.90
12771;DHT22;6449;47.666;9.160;2023-03-01T23:26:25;1.90;99.90
12771;DHT22;6449;47.666;9.160;2023-03-01T23:31:20;1.80;99.90
12771;DHT22;6449;47.666;9.160;2023-03-01T23:36:16;1.70;99.90
12771;DHT22;6449;47.666;9.160;2023-03-01T23:41:13;1.70;99.90
12771;DHT22;6449;47.666;9.160;2023-03-01T23:46:08;1.60;99.90
12771;DHT22;6449;47.666;9.160;2023-03-01T23:51:06;1.70;99.90
12771;DHT22;6449;47.666;9.160;2023-03-01T23:55:59;1.70;99.90
